Terminal Aerodrome Forecast
Issued by NWS

Home | Current Version | Previous Version | Text Only | Print | Product List | Glossary On
Versions: 1 2 3 4 5 6 7 8 9 10 11 12 13 14
089
FTUS46 KHNX 121122
TAFVIS
TAF
KVIS 121122Z 1212/1312 00000KT 1/2SM FG VV002
      TEMPO 1212/1216 1SM BR SCT005
     FM121600 VRB03KT 2SM BR SCT200
      TEMPO 1216/1218 3/4SM BR
     FM122100 VRB04KT 6SM HZ SCT200
     FM130400 VRB03KT 4SM BR SCT200
     FM130900 VRB03KT 2SM BR SCT200=

USA.gov is the U.S. government's official web portal to all federal, state and local government web resources and services.